Time;durP1;ratioP1;P1;durP2;ratioP2;P2;SDS_P1;SDS_P2;PMS_P1;PMS_P2;Temp;Humidity;BMP_temperature;BMP_pressure;BME280_temperature;BME280_humidity;BME280_pressure;Samples;Min_cycle;Max_cycle;Signal;HPM_P1;HPM_P2
2022/07/26 00:01:24;;;;;;;3.25;2.63;;;16.30;99.90;;;;;;20805713;28;20095;-56
2022/07/26 00:11:27;;;;;;;4.10;3.10;;;16.30;99.90;;;;;;20787930;28;20448;-56
2022/07/26 00:21:30;;;;;;;3.60;3.10;;;16.10;99.90;;;;;;20722084;28;20037;-58
2022/07/26 00:31:32;;;;;;;3.33;3.03;;;16.00;99.90;;;;;;20720739;28;20045;-53
2022/07/26 00:41:35;;;;;;;4.68;3.03;;;16.00;99.90;;;;;;20721433;28;20046;-55
2022/07/26 00:51:38;;;;;;;3.53;2.22;;;16.10;99.90;;;;;;20719406;28;20033;-55
2022/07/26 01:01:40;;;;;;;3.60;2.65;;;16.30;99.90;;;;;;20717864;28;20042;-55
2022/07/26 01:11:42;;;;;;;4.32;3.22;;;16.40;99.90;;;;;;20717621;28;20569;-55
2022/07/26 01:21:45;;;;;;;4.07;3.05;;;16.00;99.90;;;;;;20719470;28;20041;-59
2022/07/26 01:31:47;;;;;;;4.38;3.25;;;16.00;99.90;;;;;;20716846;28;20539;-56
2022/07/26 01:41:50;;;;;;;6.75;3.78;;;16.00;99.90;;;;;;20717226;28;20072;-54
2022/07/26 01:51:53;;;;;;;4.60;3.15;;;15.80;99.90;;;;;;20715737;28;20100;-56
2022/07/26 02:01:55;;;;;;;4.05;3.28;;;15.80;99.90;;;;;;20715542;28;20100;-54
2022/07/26 02:11:57;;;;;;;3.92;2.90;;;15.90;99.90;;;;;;20714201;28;20117;-55
2022/07/26 02:22:00;;;;;;;6.75;3.67;;;15.80;99.90;;;;;;20721334;28;20034;-59
2022/07/26 02:32:02;;;;;;;4.60;3.63;;;15.70;99.90;;;;;;20730098;28;20042;-54
2022/07/26 02:42:05;;;;;;;4.75;3.22;;;15.70;99.90;;;;;;20731786;28;20038;-55
2022/07/26 02:52:07;;;;;;;6.60;3.40;;;15.80;99.90;;;;;;20728913;28;20038;-56
2022/07/26 03:02:10;;;;;;;3.67;2.95;;;15.80;99.90;;;;;;20727918;28;20034;-54
2022/07/26 03:12:12;;;;;;;4.85;3.20;;;15.80;99.90;;;;;;20748817;28;20049;-56
2022/07/26 03:22:15;;;;;;;4.30;2.90;;;15.90;99.90;;;;;;20797954;28;20103;-56
2022/07/26 03:32:17;;;;;;;3.15;2.50;;;16.00;99.90;;;;;;20787876;28;20067;-57
2022/07/26 03:42:20;;;;;;;4.50;2.78;;;16.20;99.90;;;;;;20809849;28;20033;-55
2022/07/26 03:52:23;;;;;;;6.63;2.90;;;16.30;99.90;;;;;;20806806;28;20087;-57
2022/07/26 04:02:25;;;;;;;4.38;2.33;;;16.50;99.90;;;;;;20804476;28;20038;-56
2022/07/26 04:12:27;;;;;;;4.18;2.00;;;16.80;99.90;;;;;;20810281;28;20095;-56
2022/07/26 04:22:30;;;;;;;2.75;2.00;;;16.80;99.90;;;;;;20799439;28;20083;-56
2022/07/26 04:32:32;;;;;;;3.75;2.20;;;17.10;99.90;;;;;;20801907;28;20045;-57
2022/07/26 04:42:36;;;;;;;7.25;2.30;;;17.40;99.90;;;;;;20804656;28;20037;-55
2022/07/26 04:52:39;;;;;;;3.70;2.35;;;17.40;99.90;;;;;;20806763;28;20041;-59
2022/07/26 05:02:41;;;;;;;3.95;1.98;;;17.40;99.90;;;;;;20799973;28;20403;-57
2022/07/26 05:12:45;;;;;;;5.88;2.10;;;17.70;99.90;;;;;;20847303;28;20041;-57
2022/07/26 05:22:47;;;;;;;4.45;2.00;;;18.00;99.90;;;;;;20795698;28;20112;-59
2022/07/26 05:32:50;;;;;;;2.75;1.90;;;18.00;99.90;;;;;;20798684;28;20092;-56
2022/07/26 05:42:53;;;;;;;5.10;2.10;;;18.10;99.90;;;;;;20799050;28;20038;-56
2022/07/26 05:52:55;;;;;;;4.82;2.10;;;18.30;99.90;;;;;;20792602;28;20037;-59
2022/07/26 06:02:57;;;;;;;4.70;2.30;;;18.50;99.90;;;;;;20793455;28;20301;-57
2022/07/26 06:12:59;;;;;;;3.95;1.70;;;18.70;99.80;;;;;;20796180;28;20050;-57
2022/07/26 06:23:01;;;;;;;4.72;2.33;;;19.00;99.00;;;;;;20796601;28;20046;-57
2022/07/26 06:33:04;;;;;;;3.35;1.90;;;19.70;98.80;;;;;;20795914;28;20491;-64
2022/07/26 06:43:07;;;;;;;3.28;1.70;;;23.10;93.70;;;;;;20794709;28;20034;-58
2022/07/26 06:53:10;;;;;;;4.10;1.77;;;24.50;86.30;;;;;;20800041;28;20038;-58
2022/07/26 07:03:12;;;;;;;3.15;2.03;;;25.30;83.10;;;;;;20796586;28;20446;-58
2022/07/26 07:13:14;;;;;;;3.95;1.85;;;25.30;83.40;;;;;;20780112;28;20054;-58
2022/07/26 07:23:17;;;;;;;5.28;2.38;;;25.30;83.00;;;;;;20726916;28;20041;-58
2022/07/26 07:33:19;;;;;;;2.45;1.90;;;24.90;83.50;;;;;;20726255;28;20356;-64
2022/07/26 07:43:22;;;;;;;4.90;2.33;;;25.00;82.60;;;;;;20711218;28;20034;-58
2022/07/26 07:53:24;;;;;;;2.38;1.88;;;25.50;80.10;;;;;;20724677;28;20045;-64
2022/07/26 08:03:27;;;;;;;2.85;1.70;;;25.30;80.30;;;;;;20726071;28;20407;-59
2022/07/26 08:13:29;;;;;;;7.22;1.88;;;25.40;80.90;;;;;;20750896;28;20103;-58
2022/07/26 08:23:32;;;;;;;3.45;2.38;;;25.80;77.60;;;;;;20810957;28;20037;-59
2022/07/26 08:33:35;;;;;;;4.15;2.33;;;25.10;79.10;;;;;;20775447;28;20123;-59
2022/07/26 08:43:38;;;;;;;4.45;2.20;;;25.00;78.10;;;;;;20806135;28;20103;-58
2022/07/26 08:53:40;;;;;;;3.67;2.13;;;25.60;76.50;;;;;;20785858;28;20030;-58
2022/07/26 09:03:44;;;;;;;3.78;2.15;;;26.00;75.70;;;;;;20781463;28;20104;-58
2022/07/26 09:13:51;;;;;;;3.95;2.05;;;26.40;75.00;;;;;;20865380;28;20103;-58
2022/07/26 09:23:53;;;;;;;4.47;2.00;;;26.70;72.20;;;;;;20863230;28;20482;-59
2022/07/26 09:33:57;;;;;;;5.95;2.30;;;26.50;72.70;;;;;;20865198;28;20353;-59
2022/07/26 09:44:16;;;;;;;2.28;1.95;;;26.50;71.80;;;;;;20867598;28;20482;-59
2022/07/26 09:54:27;;;;;;;3.03;1.80;;;26.80;70.80;;;;;;20854588;28;20037;-62
2022/07/26 10:04:29;;;;;;;3.80;2.70;;;27.70;65.80;;;;;;20866508;28;20095;-58
2022/07/26 10:14:32;;;;;;;5.13;2.67;;;28.10;72.30;;;;;;20861081;28;20502;-59
2022/07/26 10:24:34;;;;;;;4.85;2.80;;;29.30;72.80;;;;;;20866591;28;20041;-61
2022/07/26 10:34:38;;;;;;;2.97;2.55;;;30.40;70.60;;;;;;20867556;28;20102;-59
2022/07/26 10:44:44;;;;;;;4.17;2.87;;;31.20;69.10;;;;;;20873781;28;20033;-59
2022/07/26 10:54:58;;;;;;;3.80;2.70;;;31.70;66.30;;;;;;20881702;28;20033;-58
2022/07/26 11:05:03;;;;;;;4.00;2.97;;;31.70;65.60;;;;;;20856643;28;20033;-59
2022/07/26 11:15:18;;;;;;;5.97;3.78;;;31.60;65.80;;;;;;20882765;28;20037;-58
2022/07/26 11:25:21;;;;;;;8.20;5.70;;;31.60;65.90;;;;;;20876917;28;20037;-58
2022/07/26 11:35:25;;;;;;;6.88;3.72;;;31.40;67.60;;;;;;20869614;28;20114;-60
2022/07/26 11:45:28;;;;;;;6.85;4.60;;;31.10;68.70;;;;;;20877003;28;20063;-58
2022/07/26 11:55:31;;;;;;;5.40;3.45;;;29.70;70.20;;;;;;20870176;28;20094;-58
2022/07/26 12:05:33;;;;;;;4.30;3.08;;;29.50;72.40;;;;;;20875969;28;20037;-58
2022/07/26 12:15:51;;;;;;;6.18;4.35;;;30.10;72.80;;;;;;20876682;28;20563;-58
2022/07/26 12:25:54;;;;;;;5.35;3.80;;;31.00;71.80;;;;;;20872606;28;20045;-59
2022/07/26 12:36:00;;;;;;;8.52;5.18;;;32.80;68.10;;;;;;20875022;28;20086;-58
2022/07/26 12:46:03;;;;;;;5.95;4.20;;;32.60;68.70;;;;;;20866742;28;20482;-58
2022/07/26 12:56:05;;;;;;;6.35;5.00;;;30.60;71.00;;;;;;20867265;28;20055;-58
2022/07/26 13:06:08;;;;;;;7.47;4.70;;;29.80;74.70;;;;;;20871050;28;20059;-58
2022/07/26 13:16:10;;;;;;;9.25;5.72;;;30.30;72.60;;;;;;20867442;28;20071;-58
2022/07/26 13:26:12;;;;;;;7.35;5.65;;;29.40;75.80;;;;;;20871066;28;20070;-59
2022/07/26 13:36:15;;;;;;;8.30;6.50;;;29.00;76.80;;;;;;20864903;28;20087;-58
2022/07/26 13:46:19;;;;;;;6.38;5.57;;;28.60;76.80;;;;;;20859675;28;20041;-58
2022/07/26 13:56:21;;;;;;;7.28;4.90;;;28.40;78.50;;;;;;20869669;28;20083;-59
2022/07/26 14:06:25;;;;;;;9.55;5.47;;;29.40;76.40;;;;;;20858437;28;20033;-58
2022/07/26 14:16:27;;;;;;;8.57;5.28;;;29.60;74.10;;;;;;20874736;28;20049;-61
2022/07/26 14:26:30;;;;;;;6.28;5.68;;;29.10;74.50;;;;;;20881078;28;20916;-58
2022/07/26 14:36:33;;;;;;;6.97;5.22;;;28.10;75.70;;;;;;20872747;28;20505;-58
2022/07/26 14:46:36;;;;;;;6.47;5.57;;;26.80;79.90;;;;;;20882760;28;20083;-58
2022/07/26 14:56:38;;;;;;;9.13;6.00;;;26.20;81.20;;;;;;20874220;28;20037;-58
2022/07/26 15:06:40;;;;;;;9.77;6.85;;;25.50;83.60;;;;;;20874168;28;20433;-58
2022/07/26 15:16:43;;;;;;;7.70;6.38;;;25.00;86.30;;;;;;20875121;28;20080;-58
2022/07/26 15:26:45;;;;;;;7.65;5.97;;;24.10;88.80;;;;;;20869268;28;20128;-58
2022/07/26 15:36:48;;;;;;;9.38;5.70;;;23.60;90.30;;;;;;20880899;28;20038;-58
2022/07/26 15:46:51;;;;;;;7.57;5.65;;;23.40;91.30;;;;;;20872442;28;20034;-57
2022/07/26 15:56:54;;;;;;;6.82;5.43;;;23.10;91.50;;;;;;20873219;28;20520;-58
2022/07/26 16:06:56;;;;;;;6.78;5.50;;;22.80;92.20;;;;;;20879251;28;20488;-58
2022/07/26 16:16:58;;;;;;;6.82;5.38;;;22.60;92.60;;;;;;20849250;28;20103;-58
2022/07/26 16:27:01;;;;;;;7.57;5.68;;;22.50;93.30;;;;;;20878123;28;20037;-58
2022/07/26 16:37:03;;;;;;;9.88;7.10;;;22.30;94.20;;;;;;20858481;28;20046;-57
2022/07/26 16:47:07;;;;;;;7.57;6.60;;;21.90;95.30;;;;;;20868686;28;20421;-58
2022/07/26 16:57:09;;;;;;;9.57;6.32;;;21.60;98.10;;;;;;20871916;28;20099;-58
2022/07/26 17:07:12;;;;;;;9.55;6.18;;;21.90;96.80;;;;;;20863823;28;20110;-59
2022/07/26 17:17:14;;;;;;;8.43;6.93;;;22.20;97.10;;;;;;20874542;28;20060;-58
2022/07/26 17:27:17;;;;;;;7.97;6.28;;;22.40;96.30;;;;;;20865749;28;20098;-58
2022/07/26 17:37:20;;;;;;;10.95;5.93;;;22.40;96.60;;;;;;20865860;28;20048;-59
2022/07/26 17:47:23;;;;;;;6.32;5.70;;;22.20;97.80;;;;;;20869619;28;20029;-58
2022/07/26 17:57:26;;;;;;;10.35;6.50;;;21.50;97.50;;;;;;20858286;28;20037;-58
2022/07/26 18:07:28;;;;;;;8.02;6.22;;;21.10;98.20;;;;;;20866100;28;20041;-57
2022/07/26 18:17:31;;;;;;;6.82;6.00;;;20.60;99.40;;;;;;20842586;28;20060;-58
2022/07/26 18:27:34;;;;;;;10.18;7.25;;;20.10;99.90;;;;;;20865478;28;20040;-57
2022/07/26 18:37:37;;;;;;;9.18;7.20;;;19.70;99.90;;;;;;20868427;28;20083;-57
2022/07/26 18:47:41;;;;;;;9.50;6.70;;;19.40;99.90;;;;;;20861433;28;20105;-57
2022/07/26 18:57:44;;;;;;;8.18;6.53;;;19.20;99.90;;;;;;20856973;28;20037;-57
2022/07/26 19:07:46;;;;;;;11.52;7.40;;;18.90;99.90;;;;;;20874445;28;20490;-58
2022/07/26 19:17:49;;;;;;;10.63;7.28;;;18.60;99.90;;;;;;20822994;28;20077;-57
2022/07/26 19:27:51;;;;;;;10.20;7.07;;;18.30;99.90;;;;;;20808547;28;20045;-57
2022/07/26 19:37:54;;;;;;;8.93;7.07;;;18.20;99.90;;;;;;20808502;28;20123;-57
2022/07/26 19:48:00;;;;;;;9.20;6.90;;;18.00;99.90;;;;;;20807292;28;20075;-57
2022/07/26 19:58:03;;;;;;;11.38;7.30;;;18.00;99.90;;;;;;20807765;28;20461;-57
2022/07/26 20:08:05;;;;;;;10.27;7.43;;;18.00;99.90;;;;;;20807131;28;20093;-57
2022/07/26 20:18:09;;;;;;;8.27;6.18;;;18.00;99.90;;;;;;20803389;28;20560;-57
2022/07/26 20:28:11;;;;;;;8.57;6.88;;;18.00;99.90;;;;;;20803940;28;20068;-57
2022/07/26 20:38:17;;;;;;;11.80;6.75;;;17.90;99.90;;;;;;20802317;28;20037;-59
2022/07/26 20:48:20;;;;;;;9.68;6.70;;;17.90;99.90;;;;;;20801774;28;20098;-57
2022/07/26 20:58:23;;;;;;;11.00;6.80;;;17.90;99.90;;;;;;20802254;28;20052;-57
2022/07/26 21:08:26;;;;;;;7.68;6.88;;;17.90;99.90;;;;;;20797347;28;20037;-57
2022/07/26 21:18:30;;;;;;;8.00;6.30;;;17.90;99.90;;;;;;20799921;28;20542;-57
2022/07/26 21:28:33;;;;;;;10.18;6.55;;;17.80;99.90;;;;;;20798420;28;20042;-57
2022/07/26 21:38:35;;;;;;;7.95;6.10;;;17.90;99.90;;;;;;20804550;28;20034;-57
2022/07/26 21:48:40;;;;;;;7.03;5.78;;;17.90;99.90;;;;;;20797744;28;20033;-57
2022/07/26 21:58:42;;;;;;;8.02;6.20;;;18.00;99.90;;;;;;20797579;28;20068;-58
2022/07/26 22:08:44;;;;;;;9.18;5.60;;;18.10;99.90;;;;;;20790114;28;20041;-58
2022/07/26 22:18:47;;;;;;;6.80;6.05;;;18.20;99.90;;;;;;20797388;28;20103;-57
2022/07/26 22:28:52;;;;;;;5.28;4.30;;;18.10;99.90;;;;;;20763902;28;20391;-57
2022/07/26 22:38:55;;;;;;;6.85;4.18;;;18.50;99.90;;;;;;20802808;28;20106;-59
2022/07/26 22:48:59;;;;;;;4.53;3.42;;;18.80;99.90;;;;;;20811799;28;20037;-57
2022/07/26 22:59:01;;;;;;;4.25;3.20;;;18.90;99.90;;;;;;20810865;28;20091;-58
2022/07/26 23:09:03;;;;;;;5.65;3.70;;;18.80;99.90;;;;;;20809912;28;20087;-57
2022/07/26 23:19:05;;;;;;;5.28;3.22;;;18.60;99.90;;;;;;20809147;28;20076;-59
2022/07/26 23:29:08;;;;;;;5.18;3.55;;;18.50;99.90;;;;;;20808509;28;20418;-57
2022/07/26 23:39:11;;;;;;;4.05;3.13;;;18.40;99.90;;;;;;20807154;28;20450;-57
2022/07/26 23:49:13;;;;;;;3.10;2.72;;;18.30;99.90;;;;;;20807358;28;20037;-57
2022/07/26 23:59:16;;;;;;;3.67;2.85;;;18.30;99.90;;;;;;20805964;28;20627;-59
